Time;durP1;ratioP1;P1;durP2;ratioP2;P2;SDS_P1;SDS_P2;PMS_P1;PMS_P2;Temp;Humidity;BMP_temperature;BMP_pressure;BME280_temperature;BME280_humidity;BME280_pressure;Samples;Min_cycle;Max_cycle;Signal;HPM_P1;HPM_P2
2024/01/04 00:00:06;;;;;;;0.95;0.40;;;;;;;;;;6209845;28;20110;-78
2024/01/04 00:03:08;;;;;;;2.50;0.45;;;;;;;;;;6226588;28;20583;-78
2024/01/04 00:06:10;;;;;;;0.47;0.30;;;;;;;;;;6223828;28;20056;-79
2024/01/04 00:09:12;;;;;;;1.15;0.40;;;;;;;;;;6203240;28;20415;-78
2024/01/04 00:12:15;;;;;;;2.67;0.70;;;;;;;;;;6218394;28;20051;-77
2024/01/04 00:15:17;;;;;;;0.25;0.20;;;;;;;;;;6203964;28;20717;-78
2024/01/04 00:18:18;;;;;;;0.40;0.30;;;;;;;;;;6208565;28;20052;-78
2024/01/04 00:21:20;;;;;;;1.80;0.45;;;;;;;;;;6201969;28;20056;-79
2024/01/04 00:24:22;;;;;;;0.88;0.30;;;;;;;;;;6222135;28;20107;-79
2024/01/04 00:27:23;;;;;;;0.95;0.35;;;;;;;;;;6225187;28;20122;-78
2024/01/04 00:30:25;;;;;;;2.85;0.50;;;;;;;;;;6220949;28;20045;-79
2024/01/04 00:33:27;;;;;;;1.65;0.30;;;;;;;;;;6219180;28;20068;-78
2024/01/04 00:36:29;;;;;;;1.38;0.40;;;;;;;;;;6234142;28;20049;-78
2024/01/04 00:39:31;;;;;;;2.33;0.40;;;;;;;;;;6207133;28;20041;-80
2024/01/04 00:42:33;;;;;;;2.08;0.40;;;;;;;;;;6223568;28;20037;-81
2024/01/04 00:45:35;;;;;;;0.30;0.20;;;;;;;;;;6203373;28;20072;-78
2024/01/04 00:48:37;;;;;;;3.00;0.20;;;;;;;;;;6230447;28;20041;-77
2024/01/04 00:51:40;;;;;;;0.40;0.33;;;;;;;;;;6230815;28;20045;-78
2024/01/04 00:54:41;;;;;;;1.52;0.20;;;;;;;;;;6213454;28;20116;-80
2024/01/04 00:57:43;;;;;;;0.88;0.20;;;;;;;;;;6222693;28;20065;-79
2024/01/04 01:00:46;;;;;;;0.57;0.20;;;;;;;;;;6224656;28;20049;-80
2024/01/04 01:03:47;;;;;;;0.75;0.30;;;;;;;;;;6213943;28;20042;-78
2024/01/04 01:06:49;;;;;;;0.22;0.10;;;;;;;;;;6240857;28;20097;-77
2024/01/04 01:09:52;;;;;;;0.10;0.10;;;;;;;;;;6220893;28;20072;-78
2024/01/04 01:12:54;;;;;;;1.05;0.17;;;;;;;;;;6242777;28;20116;-77
2024/01/04 01:15:56;;;;;;;2.65;0.20;;;;;;;;;;6220665;28;20408;-78
2024/01/04 01:18:57;;;;;;;0.10;0.10;;;;;;;;;;6204015;28;20046;-77
2024/01/04 01:21:59;;;;;;;0.15;0.15;;;;;;;;;;6229894;28;20111;-77
2024/01/04 01:25:01;;;;;;;0.35;0.17;;;;;;;;;;6221480;28;20060;-78
2024/01/04 01:28:04;;;;;;;0.10;0.10;;;;;;;;;;6217584;28;20052;-78
2024/01/04 01:31:06;;;;;;;0.10;0.10;;;;;;;;;;6214377;28;20431;-78
2024/01/04 01:34:08;;;;;;;0.00;0.00;;;;;;;;;;6200192;28;20042;-78
2024/01/04 01:37:11;;;;;;;0.00;0.00;;;;;;;;;;6199933;28;20530;-79
2024/01/04 01:40:12;;;;;;;0.30;0.13;;;;;;;;;;6226255;28;20050;-79
2024/01/04 01:43:14;;;;;;;0.57;0.08;;;;;;;;;;6197410;28;20056;-79
2024/01/04 01:46:16;;;;;;;0.00;0.00;;;;;;;;;;6227022;28;20120;-79
2024/01/04 01:49:18;;;;;;;0.10;0.10;;;;;;;;;;6222657;28;20063;-79
2024/01/04 01:52:21;;;;;;;0.13;0.10;;;;;;;;;;6199049;28;20041;-78
2024/01/04 01:55:24;;;;;;;0.10;0.10;;;;;;;;;;6204473;28;20053;-79
2024/01/04 01:58:27;;;;;;;0.28;0.10;;;;;;;;;;6214069;28;20061;-78
2024/01/04 02:01:29;;;;;;;0.10;0.10;;;;;;;;;;6219889;28;20077;-78
2024/01/04 02:04:31;;;;;;;0.20;0.13;;;;;;;;;;6209209;28;20044;-79
2024/01/04 02:07:33;;;;;;;1.73;0.52;;;;;;;;;;6214839;28;20514;-78
2024/01/04 02:10:34;;;;;;;0.10;0.10;;;;;;;;;;6198264;28;20604;-79
2024/01/04 02:13:36;;;;;;;0.10;0.10;;;;;;;;;;6214644;28;20522;-80
2024/01/04 02:16:38;;;;;;;0.13;0.10;;;;;;;;;;6228014;28;20129;-80
2024/01/04 02:19:40;;;;;;;0.75;0.10;;;;;;;;;;6196411;28;20060;-79
2024/01/04 02:22:43;;;;;;;0.20;0.20;;;;;;;;;;6201788;28;20052;-80
2024/01/04 02:25:45;;;;;;;0.10;0.10;;;;;;;;;;6214638;28;20046;-79
2024/01/04 02:28:47;;;;;;;0.10;0.10;;;;;;;;;;6208262;28;20049;-80
2024/01/04 02:31:49;;;;;;;1.00;0.10;;;;;;;;;;6219952;28;20045;-79
2024/01/04 02:34:51;;;;;;;0.65;0.20;;;;;;;;;;6211184;28;20049;-78
2024/01/04 02:37:53;;;;;;;0.10;0.10;;;;;;;;;;6203617;28;20076;-79
2024/01/04 02:40:55;;;;;;;0.17;0.17;;;;;;;;;;6215405;28;20550;-79
2024/01/04 02:43:57;;;;;;;0.93;0.20;;;;;;;;;;6212395;28;20042;-78
2024/01/04 02:46:59;;;;;;;1.65;0.20;;;;;;;;;;6192319;28;20483;-79
2024/01/04 02:50:01;;;;;;;0.10;0.10;;;;;;;;;;6209080;28;20074;-79
2024/01/04 02:53:02;;;;;;;0.20;0.20;;;;;;;;;;6202996;28;21265;-78
2024/01/04 02:56:04;;;;;;;0.82;0.10;;;;;;;;;;6225999;28;20040;-79
2024/01/04 02:59:07;;;;;;;0.10;0.10;;;;;;;;;;6248162;28;20052;-79
2024/01/04 03:02:09;;;;;;;0.17;0.17;;;;;;;;;;6238968;28;20049;-78
2024/01/04 03:05:11;;;;;;;0.32;0.20;;;;;;;;;;6233334;28;20042;-81
2024/01/04 03:08:14;;;;;;;0.20;0.20;;;;;;;;;;6209941;28;20042;-80
2024/01/04 03:11:15;;;;;;;0.88;0.20;;;;;;;;;;6196387;28;20054;-80
2024/01/04 03:14:17;;;;;;;1.00;0.20;;;;;;;;;;6210756;28;20055;-80
2024/01/04 03:17:19;;;;;;;0.20;0.20;;;;;;;;;;6192969;28;20063;-79
2024/01/04 03:20:21;;;;;;;0.90;0.20;;;;;;;;;;6208529;28;20049;-80
2024/01/04 03:23:23;;;;;;;0.10;0.10;;;;;;;;;;6191742;28;20073;-80
2024/01/04 03:26:24;;;;;;;0.32;0.20;;;;;;;;;;6227396;28;20058;-78
2024/01/04 03:29:26;;;;;;;0.20;0.20;;;;;;;;;;6234490;28;20045;-78
2024/01/04 03:32:28;;;;;;;0.20;0.20;;;;;;;;;;6232577;28;20784;-78
2024/01/04 03:35:30;;;;;;;0.20;0.20;;;;;;;;;;6226445;28;20049;-78
2024/01/04 03:38:31;;;;;;;0.32;0.20;;;;;;;;;;6210358;28;20488;-79
2024/01/04 03:41:33;;;;;;;1.27;0.50;;;;;;;;;;6224772;28;20042;-79
2024/01/04 03:44:37;;;;;;;0.45;0.40;;;;;;;;;;6221056;28;20514;-79
2024/01/04 03:47:39;;;;;;;0.60;0.60;;;;;;;;;;6227637;28;20042;-79
2024/01/04 03:50:41;;;;;;;0.95;0.73;;;;;;;;;;6225893;28;20045;-79
2024/01/04 03:53:43;;;;;;;1.10;0.80;;;;;;;;;;6220787;28;20081;-80
2024/01/04 03:56:45;;;;;;;1.23;0.80;;;;;;;;;;6234888;28;20044;-80
2024/01/04 03:59:47;;;;;;;2.13;0.70;;;;;;;;;;6229136;28;20052;-79
2024/01/04 04:02:51;;;;;;;0.40;0.40;;;;;;;;;;6232127;28;20640;-79
2024/01/04 04:05:53;;;;;;;0.75;0.40;;;;;;;;;;6223223;28;20097;-80
2024/01/04 04:08:55;;;;;;;1.70;0.77;;;;;;;;;;6219958;28;20082;-80
2024/01/04 04:11:57;;;;;;;0.20;0.20;;;;;;;;;;6226164;28;20397;-80
2024/01/04 04:14:59;;;;;;;0.45;0.30;;;;;;;;;;6191723;28;20695;-79
2024/01/04 04:18:02;;;;;;;;;;;;;;;;;;6230728;28;20060;-80
2024/01/04 04:21:04;;;;;;;0.52;0.32;;;;;;;;;;6213142;28;19928;-81
2024/01/04 04:24:06;;;;;;;0.32;0.30;;;;;;;;;;6210982;28;20064;-79
2024/01/04 04:27:08;;;;;;;0.80;0.32;;;;;;;;;;6192345;28;20048;-80
2024/01/04 04:30:10;;;;;;;0.65;0.47;;;;;;;;;;6226745;28;20042;-80
2024/01/04 04:33:12;;;;;;;2.25;0.65;;;;;;;;;;6232289;28;20055;-80
2024/01/04 04:36:14;;;;;;;1.25;0.77;;;;;;;;;;6214785;28;20049;-80
2024/01/04 04:39:16;;;;;;;0.60;0.60;;;;;;;;;;6203353;28;20565;-80
2024/01/04 04:42:18;;;;;;;2.10;0.80;;;;;;;;;;6214197;28;20131;-79
2024/01/04 04:45:20;;;;;;;1.33;0.70;;;;;;;;;;6233588;28;20537;-79
2024/01/04 04:48:22;;;;;;;3.60;0.82;;;;;;;;;;6229994;28;20046;-80
2024/01/04 04:51:27;;;;;;;2.58;0.75;;;;;;;;;;6224620;28;20065;-80
2024/01/04 04:54:29;;;;;;;0.85;0.60;;;;;;;;;;6231668;28;20050;-80
2024/01/04 04:57:31;;;;;;;3.05;0.90;;;;;;;;;;6231214;28;20049;-80
2024/01/04 05:00:32;;;;;;;1.95;0.80;;;;;;;;;;6228408;28;20041;-80
2024/01/04 05:03:35;;;;;;;2.90;1.27;;;;;;;;;;6222860;28;20054;-80
2024/01/04 05:06:37;;;;;;;2.08;0.93;;;;;;;;;;6234087;28;20100;-79
2024/01/04 05:09:39;;;;;;;1.92;1.05;;;;;;;;;;6247000;28;20041;-80
2024/01/04 05:12:41;;;;;;;2.08;1.00;;;;;;;;;;6238239;28;20045;-80
2024/01/04 05:15:43;;;;;;;1.10;0.95;;;;;;;;;;6225099;28;20048;-80
2024/01/04 05:18:44;;;;;;;4.03;1.35;;;;;;;;;;6206755;28;20068;-80
2024/01/04 05:21:46;;;;;;;1.70;1.13;;;;;;;;;;6215454;28;20654;-80
2024/01/04 05:24:48;;;;;;;3.35;1.42;;;;;;;;;;6205204;28;20053;-80
2024/01/04 05:27:50;;;;;;;2.80;1.40;;;;;;;;;;6225015;28;20049;-80
2024/01/04 05:30:51;;;;;;;4.10;1.40;;;;;;;;;;6232285;28;20053;-80
2024/01/04 05:33:53;;;;;;;2.35;1.67;;;;;;;;;;6220743;28;20099;-80
2024/01/04 05:36:55;;;;;;;3.10;1.33;;;;;;;;;;6215995;28;20077;-80
2024/01/04 05:39:57;;;;;;;2.55;1.08;;;;;;;;;;6211371;28;20057;-81
2024/01/04 05:43:02;;;;;;;1.63;1.30;;;;;;;;;;6208888;28;20188;-81
2024/01/04 05:46:04;;;;;;;3.65;1.30;;;;;;;;;;6230045;28;20033;-80
2024/01/04 05:49:06;;;;;;;3.72;1.00;;;;;;;;;;6234218;28;20044;-80
2024/01/04 05:52:08;;;;;;;3.17;1.35;;;;;;;;;;6202451;28;20049;-81
2024/01/04 05:55:10;;;;;;;2.72;1.10;;;;;;;;;;6221948;28;20049;-81
2024/01/04 05:58:12;;;;;;;2.38;1.13;;;;;;;;;;6216327;28;20049;-81
2024/01/04 06:01:15;;;;;;;1.25;0.90;;;;;;;;;;6235511;28;20138;-80
2024/01/04 06:04:17;;;;;;;2.70;1.25;;;;;;;;;;6225241;28;20056;-80
2024/01/04 06:07:21;;;;;;;2.25;0.88;;;;;;;;;;6218296;28;20095;-80
2024/01/04 06:10:22;;;;;;;;;;;;;;;;;;6229854;28;20083;-80
2024/01/04 06:13:26;;;;;;;1.00;0.90;;;;;;;;;;6231712;28;19925;-81
2024/01/04 06:16:28;;;;;;;1.52;0.90;;;;;;;;;;6219005;28;20411;-81
2024/01/04 06:19:30;;;;;;;1.08;0.95;;;;;;;;;;6224376;28;20422;-81
2024/01/04 06:22:32;;;;;;;1.52;1.27;;;;;;;;;;6231428;28;20522;-79
2024/01/04 06:25:34;;;;;;;1.65;1.05;;;;;;;;;;6211308;28;20534;-80
2024/01/04 06:28:37;;;;;;;2.95;1.10;;;;;;;;;;6224617;28;20419;-80
2024/01/04 06:31:38;;;;;;;1.30;0.90;;;;;;;;;;6239058;28;20396;-80
2024/01/04 06:34:41;;;;;;;1.17;0.80;;;;;;;;;;6229204;28;20102;-79
2024/01/04 06:37:43;;;;;;;2.47;0.77;;;;;;;;;;6224979;28;20034;-79
2024/01/04 06:40:44;;;;;;;0.85;0.70;;;;;;;;;;6223773;28;20519;-79
2024/01/04 06:43:46;;;;;;;2.35;0.70;;;;;;;;;;6232171;28;20119;-79
2024/01/04 06:46:48;;;;;;;1.80;0.70;;;;;;;;;;6236239;28;20061;-79
2024/01/04 06:49:50;;;;;;;1.50;0.60;;;;;;;;;;6221028;28;20053;-79
2024/01/04 06:52:56;;;;;;;0.45;0.40;;;;;;;;;;6209646;28;20049;-79
2024/01/04 06:55:58;;;;;;;0.63;0.63;;;;;;;;;;6226455;28;20049;-79
2024/01/04 06:59:00;;;;;;;0.93;0.50;;;;;;;;;;6215005;28;20045;-79
2024/01/04 07:02:04;;;;;;;0.50;0.50;;;;;;;;;;6227965;28;20033;-79
2024/01/04 07:05:09;;;;;;;0.50;0.50;;;;;;;;;;6220629;28;20160;-79
2024/01/04 07:08:11;;;;;;;0.50;0.50;;;;;;;;;;6207210;28;20114;-79
2024/01/04 07:11:13;;;;;;;0.43;0.43;;;;;;;;;;6215479;28;20045;-78
2024/01/04 07:14:14;;;;;;;0.85;0.40;;;;;;;;;;6231651;28;20179;-78
2024/01/04 07:17:16;;;;;;;0.40;0.40;;;;;;;;;;6231643;28;20061;-78
2024/01/04 07:20:18;;;;;;;0.40;0.38;;;;;;;;;;6235116;28;20073;-80
2024/01/04 07:23:23;;;;;;;1.13;0.32;;;;;;;;;;6223205;28;20091;-79
2024/01/04 07:26:24;;;;;;;0.75;0.28;;;;;;;;;;6232042;28;20056;-80
2024/01/04 07:29:26;;;;;;;0.40;0.40;;;;;;;;;;6228909;28;20065;-80
2024/01/04 07:32:28;;;;;;;0.80;0.30;;;;;;;;;;6230108;28;20037;-79
2024/01/04 07:35:30;;;;;;;0.60;0.50;;;;;;;;;;6210168;28;20132;-79
2024/01/04 07:38:34;;;;;;;0.38;0.30;;;;;;;;;;6225069;28;20050;-78
2024/01/04 07:41:36;;;;;;;0.35;0.32;;;;;;;;;;6206985;28;20038;-79
2024/01/04 07:44:41;;;;;;;0.30;0.22;;;;;;;;;;6189780;28;20042;-78
2024/01/04 07:47:54;;;;;;;0.88;0.30;;;;;;;;;;6226477;28;20045;-79
2024/01/04 07:50:56;;;;;;;0.52;0.20;;;;;;;;;;6223820;28;20052;-78
2024/01/04 07:53:58;;;;;;;0.50;0.30;;;;;;;;;;6208387;28;20088;-79
2024/01/04 07:57:00;;;;;;;0.40;0.30;;;;;;;;;;6211769;28;20193;-77
2024/01/04 08:00:04;;;;;;;0.47;0.47;;;;;;;;;;6221845;28;20045;-79
2024/01/04 08:03:12;;;;;;;0.30;0.30;;;;;;;;;;6221352;28;20137;-79
2024/01/04 08:06:15;;;;;;;1.08;0.43;;;;;;;;;;6207546;28;20052;-79
2024/01/04 08:09:18;;;;;;;0.22;0.22;;;;;;;;;;6217167;28;20812;-80
2024/01/04 08:12:20;;;;;;;0.45;0.45;;;;;;;;;;6233890;28;20107;-79
2024/01/04 08:15:22;;;;;;;1.50;0.38;;;;;;;;;;6232118;28;20049;-79
2024/01/04 08:18:24;;;;;;;0.22;0.22;;;;;;;;;;6228651;28;20502;-79
2024/01/04 08:21:26;;;;;;;1.00;0.30;;;;;;;;;;6217495;28;20049;-78
2024/01/04 08:24:28;;;;;;;0.63;0.30;;;;;;;;;;6204620;28;20045;-78
2024/01/04 08:27:30;;;;;;;0.40;0.40;;;;;;;;;;6225306;28;20053;-79
2024/01/04 08:30:32;;;;;;;0.40;0.30;;;;;;;;;;6227473;28;20056;-78
2024/01/04 08:33:34;;;;;;;0.50;0.50;;;;;;;;;;6205901;28;20071;-78
2024/01/04 08:36:36;;;;;;;0.50;0.30;;;;;;;;;;6209604;28;20049;-79
2024/01/04 08:39:38;;;;;;;0.75;0.50;;;;;;;;;;6225748;28;20140;-79
2024/01/04 08:42:39;;;;;;;0.60;0.52;;;;;;;;;;6223536;28;20123;-78
2024/01/04 08:45:41;;;;;;;0.50;0.50;;;;;;;;;;6211852;28;20044;-78
2024/01/04 08:48:43;;;;;;;0.60;0.50;;;;;;;;;;6212246;28;20048;-78
2024/01/04 08:51:45;;;;;;;1.42;0.30;;;;;;;;;;6222516;28;20057;-79
2024/01/04 08:54:47;;;;;;;1.23;0.47;;;;;;;;;;6221808;28;20053;-77
2024/01/04 08:57:49;;;;;;;0.60;0.60;;;;;;;;;;6204424;28;20223;-78
2024/01/04 09:00:50;;;;;;;0.43;0.40;;;;;;;;;;6209371;28;20522;-77
2024/01/04 09:03:55;;;;;;;0.50;0.50;;;;;;;;;;6220817;28;20045;-79
2024/01/04 09:06:58;;;;;;;1.58;0.55;;;;;;;;;;6220872;28;20161;-78
2024/01/04 09:09:59;;;;;;;2.08;0.70;;;;;;;;;;6206614;28;20070;-78
2024/01/04 09:13:02;;;;;;;0.60;0.60;;;;;;;;;;6228273;28;20063;-78
2024/01/04 09:16:04;;;;;;;1.45;0.80;;;;;;;;;;6211985;28;20073;-79
2024/01/04 09:19:06;;;;;;;0.82;0.70;;;;;;;;;;6216820;28;20064;-79
2024/01/04 09:22:09;;;;;;;0.95;0.80;;;;;;;;;;6213232;28;20396;-78
2024/01/04 09:25:10;;;;;;;2.70;0.80;;;;;;;;;;6219634;28;20057;-78
2024/01/04 09:28:12;;;;;;;1.40;1.10;;;;;;;;;;6225876;28;20045;-80
2024/01/04 09:31:15;;;;;;;1.27;0.90;;;;;;;;;;6229130;28;20041;-79
2024/01/04 09:34:17;;;;;;;1.25;0.98;;;;;;;;;;6213362;28;20068;-79
2024/01/04 09:37:19;;;;;;;1.92;0.70;;;;;;;;;;6243883;28;20041;-80
2024/01/04 09:40:20;;;;;;;2.10;1.10;;;;;;;;;;6228195;28;20628;-80
2024/01/04 09:43:22;;;;;;;3.38;0.90;;;;;;;;;;6197668;28;20144;-80
2024/01/04 09:46:25;;;;;;;1.13;0.88;;;;;;;;;;6212182;28;20049;-80
2024/01/04 09:49:28;;;;;;;2.20;1.00;;;;;;;;;;6209112;28;20526;-80
2024/01/04 09:52:32;;;;;;;2.25;1.10;;;;;;;;;;6224638;28;20212;-79
2024/01/04 09:55:36;;;;;;;1.90;0.63;;;;;;;;;;6221322;28;20056;-79
2024/01/04 09:58:37;;;;;;;1.88;0.70;;;;;;;;;;6225692;28;20052;-79
2024/01/04 10:01:40;;;;;;;1.27;0.70;;;;;;;;;;6215180;28;20056;-78
2024/01/04 10:04:44;;;;;;;1.03;0.60;;;;;;;;;;6211737;28;20717;-79
2024/01/04 10:08:21;;;;;;;2.28;0.95;;;;;;;;;;6219624;28;20061;-79
2024/01/04 10:11:31;;;;;;;2.45;0.95;;;;;;;;;;6182661;28;20084;-79
2024/01/04 10:14:33;;;;;;;1.90;0.70;;;;;;;;;;6208634;28;20041;-79
2024/01/04 10:17:36;;;;;;;6.13;1.27;;;;;;;;;;6208287;28;20049;-77
2024/01/04 10:20:38;;;;;;;1.10;0.73;;;;;;;;;;6215929;28;20048;-78
2024/01/04 10:23:41;;;;;;;0.68;0.60;;;;;;;;;;6189291;28;20790;-78
2024/01/04 10:26:44;;;;;;;3.47;1.38;;;;;;;;;;6214074;28;20053;-79
2024/01/04 10:29:50;;;;;;;0.70;0.50;;;;;;;;;;6227257;28;20049;-79
2024/01/04 10:32:52;;;;;;;1.30;0.70;;;;;;;;;;6217928;28;20850;-79
2024/01/04 10:35:54;;;;;;;2.35;0.73;;;;;;;;;;6224195;28;20480;-78
2024/01/04 10:39:00;;;;;;;3.63;2.10;;;;;;;;;;6223840;28;20125;-78
2024/01/04 10:42:02;;;;;;;1.40;0.90;;;;;;;;;;6225724;28;20052;-78
2024/01/04 10:45:05;;;;;;;0.95;0.75;;;;;;;;;;6212986;28;20524;-77
2024/01/04 10:48:14;;;;;;;2.05;1.67;;;;;;;;;;6209224;28;20043;-78
2024/01/04 10:51:16;;;;;;;1.60;0.60;;;;;;;;;;6204153;28;20064;-79
2024/01/04 10:54:19;;;;;;;0.85;0.68;;;;;;;;;;6223715;28;20049;-79
2024/01/04 10:57:22;;;;;;;0.60;0.60;;;;;;;;;;6207411;28;20045;-79
2024/01/04 11:00:24;;;;;;;1.03;0.77;;;;;;;;;;6234670;28;20123;-81
2024/01/04 11:03:29;;;;;;;0.80;0.70;;;;;;;;;;6223162;28;22552;-80
2024/01/04 11:06:39;;;;;;;0.73;0.60;;;;;;;;;;6207299;28;20054;-78
2024/01/04 11:09:42;;;;;;;0.70;0.60;;;;;;;;;;6224780;28;20129;-83
2024/01/04 11:12:45;;;;;;;0.90;0.70;;;;;;;;;;6196728;28;20046;-79
2024/01/04 11:15:51;;;;;;;;;;;;;;;;;;6210021;28;20440;-80
2024/01/04 11:19:01;;;;;;;0.77;0.50;;;;;;;;;;6222238;28;20379;-81
2024/01/04 11:22:28;;;;;;;1.88;0.50;;;;;;;;;;6228573;28;20183;-81
2024/01/04 11:25:57;;;;;;;0.70;0.50;;;;;;;;;;6227596;28;20056;-80
2024/01/04 11:29:02;;;;;;;0.40;0.40;;;;;;;;;;6211709;28;20068;-81
2024/01/04 11:32:05;;;;;;;0.40;0.40;;;;;;;;;;6213903;28;20099;-80
2024/01/04 11:35:10;;;;;;;0.40;0.40;;;;;;;;;;6207270;28;20049;-80
2024/01/04 11:38:12;;;;;;;0.73;0.52;;;;;;;;;;6211366;28;20125;-80
2024/01/04 11:41:14;;;;;;;0.93;0.47;;;;;;;;;;6217211;28;20065;-81
2024/01/04 11:44:19;;;;;;;1.15;0.40;;;;;;;;;;6220756;28;20444;-81
2024/01/04 11:47:25;;;;;;;1.63;0.50;;;;;;;;;;6215142;28;20046;-80
2024/01/04 11:50:30;;;;;;;0.50;0.50;;;;;;;;;;6207217;28;20041;-79
2024/01/04 11:53:32;;;;;;;1.10;0.50;;;;;;;;;;6198587;28;20116;-80
2024/01/04 11:56:34;;;;;;;1.00;0.60;;;;;;;;;;6212445;28;20055;-79
2024/01/04 11:59:35;;;;;;;1.95;1.08;;;;;;;;;;6227597;28;20041;-81
2024/01/04 12:02:38;;;;;;;0.68;0.43;;;;;;;;;;6220971;28;20053;-80
2024/01/04 12:05:46;;;;;;;1.05;0.85;;;;;;;;;;6191428;28;20507;-79
2024/01/04 12:08:49;;;;;;;1.08;0.50;;;;;;;;;;6218622;28;20049;-79
2024/01/04 12:11:55;;;;;;;0.95;0.77;;;;;;;;;;6212132;28;20045;-78
2024/01/04 12:15:03;;;;;;;1.05;0.68;;;;;;;;;;6226629;28;20496;-78
2024/01/04 12:18:05;;;;;;;0.40;0.40;;;;;;;;;;6203818;28;20116;-79
2024/01/04 12:21:08;;;;;;;0.60;0.38;;;;;;;;;;6214526;28;20045;-79
2024/01/04 12:24:19;;;;;;;0.65;0.30;;;;;;;;;;6206413;28;21431;-78
2024/01/04 12:27:21;;;;;;;0.73;0.37;;;;;;;;;;6218612;28;20125;-79
2024/01/04 12:30:23;;;;;;;2.65;0.63;;;;;;;;;;6222857;28;20727;-78
2024/01/04 12:33:32;;;;;;;0.53;0.50;;;;;;;;;;6211847;28;20056;-79
2024/01/04 12:36:34;;;;;;;1.65;0.80;;;;;;;;;;6216873;28;20110;-79
2024/01/04 12:39:36;;;;;;;0.38;0.30;;;;;;;;;;6219354;28;20042;-79
2024/01/04 12:42:38;;;;;;;0.30;0.10;;;;;;;;;;6204572;28;20050;-78
2024/01/04 12:45:40;;;;;;;1.10;0.40;;;;;;;;;;6237168;28;20045;-80
2024/01/04 12:48:41;;;;;;;0.28;0.28;;;;;;;;;;6194207;28;20057;-79
2024/01/04 12:51:43;;;;;;;1.52;0.40;;;;;;;;;;6224860;28;20067;-78
2024/01/04 12:54:46;;;;;;;2.08;0.40;;;;;;;;;;6218729;28;20591;-78
2024/01/04 12:57:48;;;;;;;1.33;0.40;;;;;;;;;;6205636;28;20546;-78
2024/01/04 13:00:49;;;;;;;2.45;0.80;;;;;;;;;;6223864;28;20168;-77
2024/01/04 13:03:51;;;;;;;1.38;0.43;;;;;;;;;;6208029;28;20053;-78
2024/01/04 13:06:53;;;;;;;4.55;0.90;;;;;;;;;;6219586;28;20046;-78
2024/01/04 13:09:56;;;;;;;0.50;0.30;;;;;;;;;;6216845;28;20037;-78
2024/01/04 13:12:58;;;;;;;2.00;0.40;;;;;;;;;;6225552;28;20045;-78
2024/01/04 13:16:00;;;;;;;1.45;0.75;;;;;;;;;;6208242;28;20542;-79
2024/01/04 13:19:03;;;;;;;2.53;0.73;;;;;;;;;;6223749;28;20472;-79
2024/01/04 13:22:05;;;;;;;2.10;0.70;;;;;;;;;;6228235;28;20408;-79
2024/01/04 13:25:07;;;;;;;1.55;0.43;;;;;;;;;;6189769;28;20050;-79
2024/01/04 13:28:09;;;;;;;2.80;0.60;;;;;;;;;;6218734;28;20045;-79
2024/01/04 13:31:10;;;;;;;2.30;0.52;;;;;;;;;;6204848;28;20124;-76
2024/01/04 13:34:12;;;;;;;2.10;0.55;;;;;;;;;;6226836;28;20052;-79
2024/01/04 13:37:14;;;;;;;1.33;0.60;;;;;;;;;;6200984;28;20049;-78
2024/01/04 13:40:16;;;;;;;3.50;0.65;;;;;;;;;;6207258;28;20380;-80
2024/01/04 13:43:18;;;;;;;4.75;0.63;;;;;;;;;;6231499;28;20060;-80
2024/01/04 13:46:19;;;;;;;1.55;0.50;;;;;;;;;;6230736;28;20662;-81
2024/01/04 13:49:21;;;;;;;2.17;0.63;;;;;;;;;;6199976;28;20049;-80
2024/01/04 13:52:23;;;;;;;2.05;0.70;;;;;;;;;;6232585;28;20037;-80
2024/01/04 13:55:27;;;;;;;3.33;0.95;;;;;;;;;;6226096;28;20054;-80
2024/01/04 13:58:31;;;;;;;3.95;0.70;;;;;;;;;;6226841;28;20624;-81
2024/01/04 14:01:33;;;;;;;3.53;1.20;;;;;;;;;;6228168;28;20096;-81
2024/01/04 14:04:35;;;;;;;6.05;0.80;;;;;;;;;;6229126;28;20052;-80
2024/01/04 14:07:36;;;;;;;4.15;0.70;;;;;;;;;;6228539;28;20080;-78
2024/01/04 14:10:42;;;;;;;4.38;1.00;;;;;;;;;;6227618;28;20041;-78
2024/01/04 14:13:44;;;;;;;4.13;1.30;;;;;;;;;;6228245;28;20107;-79
2024/01/04 14:16:45;;;;;;;3.90;0.65;;;;;;;;;;6238907;28;20127;-80
2024/01/04 14:19:47;;;;;;;5.57;1.15;;;;;;;;;;6219026;28;20053;-80
2024/01/04 14:22:50;;;;;;;1.05;0.65;;;;;;;;;;6196891;28;20135;-79
2024/01/04 14:25:52;;;;;;;6.63;1.50;;;;;;;;;;6228742;28;20135;-79
2024/01/04 14:28:53;;;;;;;4.30;1.65;;;;;;;;;;6230238;28;20061;-79
2024/01/04 14:31:55;;;;;;;3.00;0.70;;;;;;;;;;6232102;28;20068;-79
2024/01/04 14:35:00;;;;;;;5.63;0.70;;;;;;;;;;6229228;28;20053;-79
2024/01/04 14:38:02;;;;;;;5.45;0.95;;;;;;;;;;6230848;28;20137;-79
2024/01/04 14:41:05;;;;;;;3.50;0.70;;;;;;;;;;6219580;28;20045;-80
2024/01/04 14:44:07;;;;;;;6.88;1.30;;;;;;;;;;6214002;28;20108;-79
2024/01/04 14:47:09;;;;;;;6.47;1.02;;;;;;;;;;6210361;28;20127;-80
2024/01/04 14:50:12;;;;;;;8.65;1.33;;;;;;;;;;6207488;28;20136;-79
2024/01/04 14:53:15;;;;;;;6.38;1.13;;;;;;;;;;6206415;28;20042;-80
2024/01/04 14:56:18;;;;;;;2.85;0.82;;;;;;;;;;6217299;28;20045;-78
2024/01/04 14:59:19;;;;;;;3.28;0.80;;;;;;;;;;6233287;28;20045;-81
2024/01/04 15:02:21;;;;;;;4.82;0.90;;;;;;;;;;6235138;28;20067;-80
2024/01/04 15:05:23;;;;;;;4.25;1.08;;;;;;;;;;6232948;28;20041;-80
2024/01/04 15:08:27;;;;;;;3.97;0.75;;;;;;;;;;6214361;28;20049;-79
2024/01/04 15:11:31;;;;;;;4.47;0.68;;;;;;;;;;6216635;28;20053;-79
2024/01/04 15:14:33;;;;;;;2.00;0.65;;;;;;;;;;6214186;28;20042;-79
2024/01/04 15:17:36;;;;;;;5.05;0.85;;;;;;;;;;6228708;28;20060;-81
2024/01/04 15:20:38;;;;;;;4.95;1.30;;;;;;;;;;6224294;28;20123;-80
2024/01/04 15:23:40;;;;;;;4.75;0.93;;;;;;;;;;6207282;28;20041;-80
2024/01/04 15:26:42;;;;;;;6.47;0.98;;;;;;;;;;6207187;28;20093;-81
2024/01/04 15:29:43;;;;;;;2.10;0.75;;;;;;;;;;6212260;28;20065;-79
2024/01/04 15:32:49;;;;;;;2.13;1.02;;;;;;;;;;6224437;28;20060;-80
2024/01/04 15:35:51;;;;;;;2.17;0.85;;;;;;;;;;6204675;28;20049;-81
2024/01/04 15:38:53;;;;;;;5.15;1.17;;;;;;;;;;6218499;28;20095;-80
2024/01/04 15:41:56;;;;;;;7.32;1.58;;;;;;;;;;6210209;28;20046;-81
2024/01/04 15:44:58;;;;;;;2.63;0.90;;;;;;;;;;6210394;28;20045;-81
2024/01/04 15:48:00;;;;;;;3.67;0.88;;;;;;;;;;6213665;28;20041;-80
2024/01/04 15:51:02;;;;;;;4.60;0.88;;;;;;;;;;6227882;28;20080;-81
2024/01/04 15:54:04;;;;;;;8.27;3.92;;;;;;;;;;6221811;28;20049;-81
2024/01/04 15:57:06;;;;;;;2.35;0.75;;;;;;;;;;6206738;28;20075;-81
2024/01/04 16:00:08;;;;;;;6.80;0.93;;;;;;;;;;6228813;28;20411;-81
2024/01/04 16:03:10;;;;;;;4.10;0.95;;;;;;;;;;6206642;28;21327;-79
2024/01/04 16:06:12;;;;;;;2.25;0.80;;;;;;;;;;6223698;28;20061;-81
2024/01/04 16:09:15;;;;;;;5.50;0.77;;;;;;;;;;6226843;28;20555;-80
2024/01/04 16:12:23;;;;;;;5.35;1.00;;;;;;;;;;6207697;28;20041;-80
2024/01/04 16:15:27;;;;;;;3.65;1.02;;;;;;;;;;6209849;28;21695;-80
2024/01/04 16:18:29;;;;;;;1.42;0.82;;;;;;;;;;6219805;28;20046;-79
2024/01/04 16:21:31;;;;;;;6.25;1.42;;;;;;;;;;6223302;28;20807;-80
2024/01/04 16:24:33;;;;;;;3.45;1.08;;;;;;;;;;6218512;28;20061;-80
2024/01/04 16:27:35;;;;;;;3.38;0.90;;;;;;;;;;6222276;28;20507;-78
2024/01/04 16:30:37;;;;;;;3.97;0.90;;;;;;;;;;6227571;28;20406;-78
2024/01/04 16:33:39;;;;;;;8.60;0.93;;;;;;;;;;6220112;28;20052;-80
2024/01/04 16:36:41;;;;;;;4.90;1.73;;;;;;;;;;6196597;28;20538;-79
2024/01/04 16:39:43;;;;;;;11.45;4.45;;;;;;;;;;6219303;28;20523;-79
2024/01/04 16:42:45;;;;;;;8.23;2.80;;;;;;;;;;6231344;28;20207;-79
2024/01/04 16:45:46;;;;;;;7.43;3.28;;;;;;;;;;6207071;28;20087;-79
2024/01/04 16:48:48;;;;;;;5.30;1.52;;;;;;;;;;6219656;28;20041;-79
2024/01/04 16:51:50;;;;;;;6.88;1.60;;;;;;;;;;6220993;28;20049;-79
2024/01/04 16:54:52;;;;;;;6.22;1.70;;;;;;;;;;6205487;28;20525;-80
2024/01/04 16:57:54;;;;;;;4.30;0.95;;;;;;;;;;6193385;28;20214;-81
2024/01/04 17:00:56;;;;;;;5.10;2.00;;;;;;;;;;6216048;28;20474;-80
2024/01/04 17:03:57;;;;;;;4.80;1.63;;;;;;;;;;6225805;28;20048;-81
2024/01/04 17:07:03;;;;;;;5.47;1.40;;;;;;;;;;6204379;28;20041;-80
2024/01/04 17:10:04;;;;;;;3.40;1.10;;;;;;;;;;6218632;28;20053;-80
2024/01/04 17:13:11;;;;;;;11.00;2.97;;;;;;;;;;6223658;28;20045;-81
2024/01/04 17:16:15;;;;;;;6.75;2.15;;;;;;;;;;6220623;28;20112;-80
2024/01/04 17:19:20;;;;;;;3.33;1.20;;;;;;;;;;6206285;28;20048;-79
2024/01/04 17:22:22;;;;;;;8.32;1.65;;;;;;;;;;6206580;28;20108;-80
2024/01/04 17:25:24;;;;;;;3.75;1.50;;;;;;;;;;6219075;28;20840;-81
2024/01/04 17:28:26;;;;;;;7.72;1.55;;;;;;;;;;6213121;28;20053;-80
2024/01/04 17:31:28;;;;;;;4.63;1.10;;;;;;;;;;6184937;28;20101;-80
2024/01/04 17:34:30;;;;;;;7.30;2.38;;;;;;;;;;6216697;28;20091;-79
2024/01/04 17:37:33;;;;;;;4.28;1.25;;;;;;;;;;6216402;28;20122;-79
2024/01/04 17:40:35;;;;;;;7.10;1.73;;;;;;;;;;6188559;28;20056;-80
2024/01/04 17:43:37;;;;;;;6.13;1.77;;;;;;;;;;6232569;28;20045;-80
2024/01/04 17:46:38;;;;;;;11.13;2.58;;;;;;;;;;6222069;28;20045;-80
2024/01/04 17:49:45;;;;;;;5.93;2.78;;;;;;;;;;6207808;28;20068;-80
2024/01/04 17:52:46;;;;;;;7.72;1.90;;;;;;;;;;6202452;28;20053;-81
2024/01/04 17:55:48;;;;;;;7.55;2.53;;;;;;;;;;6209212;28;20064;-81
2024/01/04 17:58:50;;;;;;;6.03;1.75;;;;;;;;;;6212813;28;20481;-80
2024/01/04 18:01:52;;;;;;;3.67;1.67;;;;;;;;;;6199149;28;20049;-81
2024/01/04 18:04:54;;;;;;;7.30;1.97;;;;;;;;;;6223138;28;20053;-81
2024/01/04 18:07:57;;;;;;;7.93;1.70;;;;;;;;;;6226199;28;20045;-78
2024/01/04 18:10:59;;;;;;;6.38;1.80;;;;;;;;;;6202759;28;20396;-79
2024/01/04 18:14:01;;;;;;;14.32;3.10;;;;;;;;;;6209733;28;20057;-79